Terminal Aerodrome Forecast
Issued by NWS Melbourne, FL

Home | Current Version | Previous Version | Text Only | Print | Product List | Glossary On
Versions: 1 2 3 4 5 6 7 8 9 10 11 12 13 14 15 16 17 18
000
FTUS42 KMLB 181100 RRA
TAFMLB
TAF
KMLB 181141Z 1812/1912 25005KT 3SM BR BKN002
      TEMPO 1812/1814 1SM BR BKN002
     FM181400 33005KT P6SM FEW015
     FM181600 04008KT P6SM SCT030
     FM182000 08010KT P6SM SCT035 SCT120
     FM190200 08005KT P6SM FEW030 BKN250=

USA.gov is the U.S. government's official web portal to all federal, state and local government web resources and services.